Time;durP1;ratioP1;P1;durP2;ratioP2;P2;SDS_P1;SDS_P2;PMS_P1;PMS_P2;Temp;Humidity;BMP_temperature;BMP_pressure;BME280_temperature;BME280_humidity;BME280_pressure;Samples;Min_cycle;Max_cycle;Signal;HPM_P1;HPM_P2
2022/02/02 02:57:42;;;;;;;1.23;0.80;;;;;;;11.32;62.55;100167.13;144992;633;6002;-81
2022/02/02 04:12:46;;;;;;;1.55;1.17;;;;;;;10.57;64.45;100190.75;144992;587;6002;-85
2022/02/02 05:44:03;;;;;;;1.75;1.65;;;;;;;8.87;70.05;100207.25;144994;583;5002;-87
2022/02/02 05:49:37;;;;;;;2.50;2.30;;;;;;;9.29;67.37;100198.06;144994;657;5002;-90
2022/02/02 05:52:01;;;;;;;2.95;2.12;;;;;;;9.49;67.33;100208.06;144994;581;5004;-90
2022/02/02 05:54:35;;;;;;;2.25;1.92;;;;;;;9.49;67.67;100202.87;144994;631;5004;-79
2022/02/02 05:57:03;;;;;;;2.55;1.90;;;;;;;9.16;68.48;100216.69;144994;575;5004;-91
2022/02/02 05:59:34;;;;;;;2.00;1.85;;;;;;;9.57;66.68;100210.00;144994;597;5004;-89
2022/02/02 06:59:35;;;;;;;4.80;4.20;;;;;;;10.78;62.01;100221.47;144994;604;5002;-82
2022/02/02 07:02:35;;;;;;;5.30;4.40;;;;;;;10.88;61.69;100220.84;144994;640;5002;-92
2022/02/02 07:05:22;;;;;;;14.02;10.30;;;;;;;10.98;61.34;100234.03;144994;585;5002;-85
2022/02/02 07:11:32;;;;;;;15.77;11.30;;;;;;;10.88;61.63;100231.22;144994;562;5004;-91
2022/02/02 07:14:12;;;;;;;4.18;3.60;;;;;;;10.92;61.32;100226.09;144993;594;5004;-91
2022/02/02 07:20:02;;;;;;;3.65;3.30;;;;;;;10.97;61.28;100225.34;144994;618;5004;-95
2022/02/02 07:31:28;;;;;;;4.05;3.65;;;;;;;11.04;61.44;100237.63;144994;674;5004;-91
2022/02/02 07:34:09;;;;;;;4.47;3.30;;;;;;;10.91;61.84;100233.00;144994;592;5002;-91
2022/02/02 07:36:59;;;;;;;3.75;2.90;;;;;;;10.75;62.51;100238.72;144994;579;5002;-91
2022/02/02 07:39:27;;;;;;;6.07;3.00;;;;;;;10.89;62.26;100238.16;144994;586;5002;-89
2022/02/02 07:42:05;;;;;;;4.18;3.03;;;;;;;10.95;61.86;100236.56;144994;767;5002;-89
2022/02/02 07:44:37;;;;;;;3.17;2.72;;;;;;;10.88;62.43;100235.53;144994;665;5002;-90
2022/02/02 07:47:12;;;;;;;5.03;3.78;;;;;;;10.99;62.06;100230.56;144994;607;5002;-83
2022/02/02 07:49:53;;;;;;;4.10;3.70;;;;;;;11.02;61.62;100220.22;144994;587;5002;-91
2022/02/02 07:52:28;;;;;;;8.55;6.28;;;;;;;11.11;61.50;100228.22;144994;630;5002;-86
2022/02/02 07:55:08;;;;;;;5.78;4.95;;;;;;;11.17;61.56;100235.28;144994;614;5002;-90
2022/02/02 07:57:36;;;;;;;5.32;4.37;;;;;;;11.02;62.04;100230.63;144994;604;5002;-92
2022/02/02 08:00:09;;;;;;;6.45;5.40;;;;;;;11.08;61.90;100239.41;144994;626;5002;-91
2022/02/02 08:05:29;;;;;;;8.25;7.32;;;;;;;11.19;61.78;100241.34;144994;581;5004;-89
2022/02/02 08:08:15;;;;;;;8.57;7.18;;;;;;;11.11;61.60;100233.41;144994;593;5004;-91
2022/02/02 08:10:51;;;;;;;6.35;5.50;;;;;;;11.01;62.41;100229.75;144994;594;5004;-93
2022/02/02 08:13:44;;;;;;;5.18;4.32;;;;;;;10.62;63.52;100222.00;144994;606;5004;-88
2022/02/02 08:18:46;;;;;;;5.35;4.65;;;;;;;10.45;63.94;100219.03;144994;593;5002;-84
2022/02/02 08:21:15;;;;;;;5.90;4.50;;;;;;;10.61;63.09;100215.94;144993;627;5002;-91
2022/02/02 08:23:55;;;;;;;8.43;5.78;;;;;;;10.71;63.07;100219.63;144994;663;5002;-93
2022/02/02 08:28:58;;;;;;;15.93;11.45;;;;;;;10.92;62.06;100203.59;144994;590;5002;-85
2022/02/02 08:31:41;;;;;;;25.52;16.85;;;;;;;10.94;62.85;100206.22;144994;585;5002;-80
2022/02/02 08:42:33;;;;;;;9.00;7.03;;;;;;;10.97;62.09;100206.28;144994;605;5002;-91
2022/02/02 08:45:25;;;;;;;8.70;6.28;;;;;;;10.99;62.44;100205.50;144994;650;5002;-92
2022/02/02 08:48:01;;;;;;;8.32;6.15;;;;;;;11.00;61.37;100191.62;144994;601;5002;-86
2022/02/02 08:51:00;;;;;;;6.62;4.45;;;;;;;11.06;61.23;100201.28;144994;587;5002;-93
2022/02/02 08:53:46;;;;;;;;;;;;;;;;;;;;;
2022/02/02 08:59:48;;;;;;;8.13;6.68;;;;;;;11.23;60.79;100193.78;144994;604;5002;-83
2022/02/02 09:02:27;;;;;;;7.82;6.45;;;;;;;10.95;61.25;100190.69;144993;571;5002;-93
2022/02/02 09:05:24;;;;;;;6.32;5.47;;;;;;;11.07;60.95;100185.72;144994;564;5002;-85
2022/02/02 09:24:48;;;;;;;8.68;7.50;;;;;;;11.38;60.70;100211.41;144994;595;5002;-92
2022/02/02 09:33:13;;;;;;;6.68;5.85;;;;;;;11.45;60.76;100213.25;144994;588;5002;-91
2022/02/02 09:35:35;;;;;;;7.40;6.18;;;;;;;11.53;60.62;100226.38;144994;636;5004;-91
2022/02/02 09:38:15;;;;;;;9.95;6.57;;;;;;;11.53;60.64;100224.69;144994;573;5004;-85
2022/02/02 09:41:16;;;;;;;8.40;7.43;;;;;;;11.46;61.48;100225.41;144993;604;5000;-92
2022/02/02 09:43:34;;;;;;;11.57;7.90;;;;;;;11.52;61.19;100224.66;144994;582;4569;-92
2022/02/02 09:46:07;;;;;;;11.70;7.60;;;;;;;11.54;61.68;100222.97;144994;581;4574;-90
2022/02/02 09:48:45;;;;;;;9.65;8.60;;;;;;;11.53;61.60;100227.28;144993;570;6000;-92
2022/02/02 09:51:17;;;;;;;14.40;11.05;;;;;;;11.23;62.94;100219.78;144992;564;6002;-93
2022/02/02 09:54:11;;;;;;;7.15;6.28;;;;;;;11.21;62.64;100213.69;144992;570;6002;-95
2022/02/02 09:57:25;;;;;;;6.20;4.25;;;;;;;10.70;63.86;100207.47;144992;580;6005;-91
2022/02/02 10:03:00;;;;;;;4.60;3.47;;;;;;;10.39;64.65;100205.91;144992;584;6004;-88
2022/02/02 10:05:31;;;;;;;4.50;3.65;;;;;;;10.22;65.40;100211.59;144992;620;6002;-87
2022/02/02 10:08:47;;;;;;;4.78;3.22;;;;;;;10.20;65.51;100208.09;144992;669;6002;-91
2022/02/02 10:11:54;;;;;;;4.78;3.08;;;;;;;9.73;65.88;100220.78;144992;562;6005;-91
2022/02/02 10:14:52;;;;;;;9.77;7.10;;;;;;;9.74;65.91;100217.34;144992;565;6002;-91
2022/02/02 10:17:33;;;;;;;6.05;4.30;;;;;;;9.16;66.24;100215.00;144992;593;6004;-92
2022/02/02 10:20:22;;;;;;;5.50;4.18;;;;;;;9.01;65.80;100201.62;144992;567;6004;-89
2022/02/02 10:22:53;;;;;;;3.90;3.40;;;;;;;8.66;67.37;100188.56;144992;588;6004;-92
2022/02/02 10:25:47;;;;;;;4.72;3.58;;;;;;;8.50;67.79;100180.34;144992;567;6004;-90
2022/02/02 10:28:19;;;;;;;2.70;2.20;;;;;;;8.40;68.41;100183.47;144992;568;6004;-91
2022/02/02 10:30:53;;;;;;;2.30;1.95;;;;;;;8.55;68.17;100180.47;144992;603;6004;-93
2022/02/02 10:33:27;;;;;;;2.22;1.70;;;;;;;8.57;67.29;100177.94;144992;668;6004;-83
2022/02/02 10:36:32;;;;;;;3.03;1.80;;;;;;;8.44;67.17;100158.59;144992;618;6004;-90
2022/02/02 10:39:14;;;;;;;2.75;1.52;;;;;;;8.48;67.35;100166.47;144992;622;6002;-88
2022/02/02 10:42:00;;;;;;;2.75;1.60;;;;;;;8.01;68.83;100165.00;144992;581;6002;-92
2022/02/02 10:44:40;;;;;;;3.72;2.62;;;;;;;8.02;68.83;100169.34;144992;659;6002;-89
2022/02/02 10:47:59;;;;;;;;;;;;;;;;;;;;;
2022/02/02 11:07:55;;;;;;;3.35;2.65;;;;;;;8.47;67.22;100164.72;144992;657;6004;-90
2022/02/02 11:10:59;;;;;;;3.70;2.80;;;;;;;7.98;68.85;100152.84;144992;576;6002;-80
2022/02/02 11:14:10;;;;;;;3.50;2.10;;;;;;;8.08;67.61;100149.75;144992;595;6004;-85
2022/02/02 11:17:07;;;;;;;2.90;2.30;;;;;;;7.63;68.83;100142.28;144992;595;6002;-79
2022/02/02 11:20:12;;;;;;;2.40;2.05;;;;;;;7.72;69.13;100144.31;144992;600;6004;-84
2022/02/02 11:23:34;;;;;;;3.05;1.90;;;;;;;7.37;70.36;100149.19;144992;564;6002;-89
2022/02/02 11:26:28;;;;;;;2.72;2.30;;;;;;;7.25;70.96;100150.53;144992;567;6002;-91
2022/02/02 11:29:22;;;;;;;6.05;2.92;;;;;;;6.87;72.32;100156.91;144992;611;6004;-84
2022/02/02 11:32:05;;;;;;;3.33;2.42;;;;;;;6.77;72.77;100154.84;144992;563;6002;-87
2022/02/02 11:34:58;;;;;;;;;;;;;;;;;;;;;
2022/02/02 11:38:11;;;;;;;2.42;2.17;;;;;;;6.79;73.15;100156.66;144992;585;6004;-83
2022/02/02 11:41:40;;;;;;;2.50;2.00;;;;;;;6.65;73.29;100155.25;144992;720;6002;-86
2022/02/02 11:45:01;;;;;;;;;;;;;;;;;;;;;
2022/02/02 11:48:05;;;;;;;;;;;;;;;;;;;;;
2022/02/02 11:51:35;;;;;;;5.72;3.67;;;;;;;7.08;72.66;100165.44;144992;585;6004;-82
2022/02/02 11:54:19;;;;;;;8.15;5.50;;;;;;;6.79;72.28;100159.25;144992;646;6004;-85
2022/02/02 11:57:25;;;;;;;8.68;5.87;;;;;;;6.78;72.58;100167.78;144992;595;6004;-82
2022/02/02 12:00:20;;;;;;;10.27;7.60;;;;;;;6.72;72.08;100155.53;144992;563;6002;-83
2022/02/02 12:03:23;;;;;;;8.20;6.12;;;;;;;6.86;71.96;100158.63;144992;575;6007;-91
2022/02/02 12:06:21;;;;;;;4.85;3.58;;;;;;;6.68;72.37;100157.94;144992;567;6004;-88
2022/02/02 12:09:20;;;;;;;5.45;3.30;;;;;;;6.68;71.82;100151.12;144992;668;6004;-89
2022/02/02 12:27:46;;;;;;;13.38;8.00;;;;;;;6.87;73.59;100150.06;144992;624;6004;-89
2022/02/02 12:44:55;;;;;;;2.28;1.83;;;;;;;6.32;75.80;100155.78;144992;589;6004;-89
2022/02/02 12:45:17;;;;;;;3.03;2.53;;;;;;;6.27;75.70;100150.44;144992;591;6002;-88
2022/02/02 12:53:33;;;;;;;2.67;2.08;;;;;;;6.30;76.09;100152.25;144992;601;6002;-89
2022/02/02 12:53:41;;;;;;;3.42;2.40;;;;;;;6.38;75.65;100165.44;144992;582;6004;-90
2022/02/02 12:56:33;;;;;;;2.40;2.10;;;;;;;6.40;75.04;100161.22;144992;596;6004;-89
2022/02/02 13:02:26;;;;;;;3.55;3.15;;;;;;;6.46;74.88;100169.16;144992;605;6005;-89
2022/02/02 13:05:09;;;;;;;3.85;3.33;;;;;;;6.26;75.75;100181.31;144992;644;6004;-90
2022/02/02 13:07:37;;;;;;;4.45;3.20;;;;;;;6.47;74.99;100176.97;144992;594;6004;-88
2022/02/02 13:10:20;;;;;;;4.65;2.95;;;;;;;6.61;73.86;100174.91;144992;596;6005;-90
2022/02/02 13:12:55;;;;;;;2.78;2.08;;;;;;;6.35;74.38;100185.13;144992;610;6004;-88
2022/02/02 13:15:40;;;;;;;;;;;;;;;6.55;74.44;100187.56;144997;911;6004;-90
2022/02/02 13:18:17;;;;;;;3.30;2.75;;;;;;;6.56;73.90;100178.16;144997;565;6002;-88
2022/02/02 13:24:01;;;;;;;2.85;2.45;;;;;;;6.62;73.12;100197.31;144992;620;6002;-87
2022/02/02 13:26:59;;;;;;;2.62;2.30;;;;;;;6.28;74.34;100205.44;144992;566;6002;-90
2022/02/02 13:29:45;;;;;;;3.58;2.30;;;;;;;6.40;73.62;100199.91;144992;563;6002;-88
2022/02/02 13:35:59;;;;;;;3.55;2.17;;;;;;;6.74;72.32;100196.87;144992;571;6004;-85
2022/02/02 13:38:48;;;;;;;2.80;2.35;;;;;;;7.00;71.08;100197.84;144992;617;6002;-85
2022/02/02 13:44:23;;;;;;;3.25;2.12;;;;;;;6.96;71.32;100206.28;144992;656;6018;-91
2022/02/02 13:47:15;;;;;;;3.58;2.28;;;;;;;7.07;71.03;100194.62;144992;735;6004;-90
2022/02/02 13:49:58;;;;;;;3.28;2.47;;;;;;;7.10;71.48;100205.91;144992;564;6002;-89
2022/02/02 13:52:52;;;;;;;3.22;2.62;;;;;;;7.19;70.92;100211.38;144992;565;6002;-87
2022/02/02 14:01:25;;;;;;;5.15;3.87;;;;;;;6.92;73.26;100222.50;144992;581;6002;-88
2022/02/02 14:32:25;;;;;;;5.57;3.97;;;;;;;7.45;71.11;100248.44;144992;624;6004;-89
2022/02/02 14:34:52;;;;;;;11.90;6.60;;;;;;;7.84;68.46;100249.75;144992;574;6004;-83
2022/02/02 14:37:24;;;;;;;10.75;7.82;;;;;;;7.75;69.30;100251.19;144992;684;6004;-86
2022/02/02 14:40:00;;;;;;;7.00;4.95;;;;;;;7.70;69.50;100247.59;144992;572;6004;-86
2022/02/02 14:42:31;;;;;;;5.55;3.75;;;;;;;7.46;70.11;100247.63;144992;590;6004;-85
2022/02/02 14:45:05;;;;;;;5.00;4.22;;;;;;;7.14;72.11;100242.19;144992;682;6004;-85
2022/02/02 14:47:37;;;;;;;6.03;4.50;;;;;;;7.54;69.21;100256.53;144992;572;6004;-85
2022/02/02 14:50:16;;;;;;;6.07;4.12;;;;;;;7.70;69.66;100257.94;144992;563;6004;-86
2022/02/02 14:53:04;;;;;;;5.85;4.70;;;;;;;7.42;70.89;100256.09;144992;670;6004;-87
2022/02/02 15:16:47;;;;;;;5.12;4.00;;;;;;;6.32;75.44;100264.06;144992;668;6002;-86
2022/02/02 15:23:59;;;;;;;4.62;3.80;;;;;;;6.47;72.98;100274.09;144992;571;6004;-87
2022/02/02 15:29:35;;;;;;;5.75;4.03;;;;;;;6.45;74.40;100266.28;144992;653;6002;-86
2022/02/02 15:32:02;;;;;;;6.12;4.85;;;;;;;6.40;74.35;100290.16;144992;667;6002;-85
2022/02/02 15:34:36;;;;;;;7.30;5.18;;;;;;;6.15;75.57;100284.84;144992;588;6002;-85
2022/02/02 15:37:21;;;;;;;4.95;3.90;;;;;;;6.07;75.52;100288.81;144992;591;6002;-84
2022/02/02 15:43:09;;;;;;;5.95;4.12;;;;;;;6.14;75.20;100285.69;144992;573;6004;-88
2022/02/02 16:02:15;;;;;;;5.12;3.60;;;;;;;5.88;76.89;100306.91;144993;668;6002;-89
2022/02/02 16:04:42;;;;;;;4.28;3.22;;;;;;;5.78;77.41;100306.50;144993;565;6002;-88
2022/02/02 16:07:18;;;;;;;4.45;3.50;;;;;;;5.91;77.36;100307.03;144993;588;6002;-88
2022/02/02 16:09:59;;;;;;;3.85;3.08;;;;;;;6.22;75.15;100308.31;144993;684;6002;-88
2022/02/02 16:12:37;;;;;;;5.00;3.20;;;;;;;6.48;74.16;100312.81;144993;616;6002;-87
2022/02/02 16:15:23;;;;;;;3.72;2.60;;;;;;;6.77;72.23;100310.50;144993;564;6002;-82
2022/02/02 16:31:29;;;;;;;4.28;3.30;;;;;;;6.57;73.31;100326.91;144993;657;6000;-88
2022/02/02 16:37:20;;;;;;;3.15;2.70;;;;;;;6.61;72.83;100354.59;144992;582;6002;-86
2022/02/02 16:39:53;;;;;;;3.15;2.65;;;;;;;6.52;72.17;100350.81;144991;620;6002;-86
2022/02/02 16:45:28;;;;;;;2.70;2.25;;;;;;;5.98;74.00;100371.81;144992;569;6002;-87
2022/02/02 16:47:56;;;;;;;2.95;2.30;;;;;;;6.00;74.31;100377.03;144993;679;6002;-87
2022/02/02 16:50:29;;;;;;;2.85;2.30;;;;;;;5.90;74.57;100385.13;144993;584;6002;-87
2022/02/02 16:53:05;;;;;;;2.85;2.33;;;;;;;5.77;74.95;100378.56;144993;680;6002;-86
2022/02/02 16:55:57;;;;;;;3.62;3.00;;;;;;;5.93;73.74;100375.84;144993;564;6002;-87
2022/02/02 17:31:01;;;;;;;3.47;3.05;;;;;;;6.51;70.68;100420.37;144993;595;6006;-84
2022/02/02 17:40:18;;;;;;;4.12;3.40;;;;;;;6.39;71.19;100423.31;144993;674;6002;-85
2022/02/02 17:59:46;;;;;;;4.57;4.10;;;;;;;7.51;67.82;100437.22;144994;606;5002;-86
2022/02/02 18:16:04;;;;;;;7.22;5.80;;;;;;;7.47;67.47;100456.00;144994;600;5002;-86
2022/02/02 18:18:50;;;;;;;6.28;5.00;;;;;;;7.39;67.46;100441.91;144994;604;5004;-87
2022/02/02 18:21:20;;;;;;;5.03;4.40;;;;;;;7.36;67.86;100445.25;144994;629;5004;-91
2022/02/02 18:24:05;;;;;;;6.60;4.70;;;;;;;7.48;66.94;100452.59;144994;690;5004;-85
2022/02/02 18:26:54;;;;;;;5.55;4.70;;;;;;;7.40;67.22;100451.44;144994;623;5004;-85
2022/02/02 18:29:29;;;;;;;5.95;5.18;;;;;;;7.50;66.67;100450.09;144994;637;5004;-89
2022/02/02 18:32:14;;;;;;;7.05;5.57;;;;;;;7.49;67.58;100443.16;144994;655;5004;-87
2022/02/02 18:34:55;;;;;;;6.28;5.32;;;;;;;7.41;67.70;100463.50;144994;568;5004;-86
2022/02/02 18:43:26;;;;;;;5.32;4.47;;;;;;;6.84;70.57;100461.25;144994;571;5004;-87
2022/02/02 18:48:43;;;;;;;8.02;5.85;;;;;;;6.93;70.35;100471.09;144994;727;5004;-89
2022/02/02 18:51:35;;;;;;;6.80;5.68;;;;;;;6.96;69.54;100473.78;144994;637;5004;-88
2022/02/02 18:54:16;;;;;;;6.45;5.32;;;;;;;6.89;70.17;100472.69;144994;643;5002;-84
2022/02/02 18:59:45;;;;;;;7.27;6.37;;;;;;;6.99;69.87;100477.37;144994;587;5019;-87
2022/02/02 19:14:37;;;;;;;8.60;6.93;;;;;;;6.64;70.97;100476.81;144994;610;5004;-88
2022/02/02 19:55:02;;;;;;;8.20;6.65;;;;;;;6.78;69.38;100504.91;144994;567;5002;-89
2022/02/02 21:10:21;;;;;;;6.62;5.90;;;;;;;8.43;64.90;100525.03;144994;573;5002;-85
2022/02/02 21:15:36;;;;;;;6.57;5.82;;;;;;;8.41;64.61;100529.22;144994;605;5004;-90
2022/02/02 21:18:22;;;;;;;7.47;5.85;;;;;;;8.49;64.46;100538.16;144994;686;5004;-90
2022/02/02 21:21:06;;;;;;;;;;;;;;;8.55;63.88;100536.63;144998;908;5004;-88
2022/02/02 21:26:46;;;;;;;6.75;5.97;;;;;;;8.63;63.81;100548.13;144994;603;5004;-88
2022/02/02 21:29:28;;;;;;;6.90;5.80;;;;;;;8.38;64.28;100544.63;144994;621;5002;-88
2022/02/02 21:32:23;;;;;;;6.87;5.47;;;;;;;8.40;64.38;100549.84;144994;563;5004;-90
2022/02/02 21:34:52;;;;;;;6.78;5.62;;;;;;;8.32;64.15;100549.59;144994;563;5004;-93
2022/02/02 21:40:20;;;;;;;6.70;5.75;;;;;;;8.03;64.82;100551.97;144994;564;5002;-88
2022/02/02 21:45:19;;;;;;;7.37;5.32;;;;;;;8.19;64.45;100568.94;144994;633;5002;-87
2022/02/02 21:47:48;;;;;;;6.57;5.05;;;;;;;8.12;62.72;100572.13;144994;627;5002;-88
2022/02/02 21:50:18;;;;;;;6.43;5.12;;;;;;;8.01;63.75;100569.13;144994;632;5002;-91
2022/02/02 21:52:52;;;;;;;5.62;5.03;;;;;;;8.02;64.10;100578.66;144994;620;5002;-89
2022/02/02 21:55:19;;;;;;;8.07;5.55;;;;;;;8.21;63.82;100576.75;144994;605;5002;-86
2022/02/02 21:57:46;;;;;;;6.05;4.60;;;;;;;7.73;63.14;100574.94;144994;586;5002;-88
2022/02/02 22:00:15;;;;;;;5.68;4.97;;;;;;;7.56;64.02;100570.00;144994;593;5002;-86
2022/02/02 22:02:44;;;;;;;6.45;5.22;;;;;;;7.39;64.08;100571.91;144994;582;5002;-89
2022/02/02 22:05:11;;;;;;;7.62;5.40;;;;;;;7.48;64.93;100583.44;144994;661;5002;-88
2022/02/02 22:07:38;;;;;;;7.70;5.70;;;;;;;7.57;64.88;100584.72;144994;618;5002;-87
2022/02/02 22:10:08;;;;;;;6.93;5.22;;;;;;;7.44;65.23;100569.53;144994;569;5002;-89
2022/02/02 22:12:39;;;;;;;6.32;4.72;;;;;;;7.25;63.30;100558.47;144993;585;5002;-92
2022/02/02 22:15:19;;;;;;;6.60;5.15;;;;;;;7.72;64.39;100560.28;144994;605;4567;-88
2022/02/02 22:17:46;;;;;;;5.57;4.85;;;;;;;7.95;64.04;100574.06;144994;563;4572;-89
2022/02/02 22:20:15;;;;;;;6.18;5.00;;;;;;;7.59;62.77;100567.56;144992;620;6002;-88
2022/02/02 22:22:43;;;;;;;5.95;4.20;;;;;;;7.52;62.65;100559.50;144992;696;6002;-85
2022/02/02 22:25:15;;;;;;;5.20;4.10;;;;;;;7.55;62.69;100568.25;144992;563;6002;-86
2022/02/02 22:27:42;;;;;;;7.15;4.30;;;;;;;7.46;63.17;100567.91;144992;667;6002;-89
2022/02/02 22:30:09;;;;;;;5.32;4.20;;;;;;;7.26;63.77;100575.69;144992;623;6002;-86
2022/02/02 22:32:36;;;;;;;5.47;4.22;;;;;;;6.79;64.70;100581.47;144992;608;6002;-86
2022/02/02 22:35:04;;;;;;;5.50;4.37;;;;;;;6.78;64.58;100565.13;144992;583;6002;-90
2022/02/02 22:37:31;;;;;;;5.65;4.80;;;;;;;6.80;65.39;100571.22;144992;584;6002;-89
2022/02/02 22:40:00;;;;;;;7.20;5.43;;;;;;;7.01;65.21;100573.81;144992;609;6002;-88
2022/02/02 22:42:28;;;;;;;6.05;4.82;;;;;;;6.85;64.47;100581.72;144992;706;6002;-88
2022/02/02 22:45:00;;;;;;;5.20;4.18;;;;;;;6.57;65.20;100572.81;144992;569;6002;-90
2022/02/02 22:47:31;;;;;;;5.22;4.40;;;;;;;6.56;65.61;100575.31;144992;572;6002;-90
2022/02/02 22:50:00;;;;;;;4.97;4.25;;;;;;;6.41;65.54;100568.69;144992;639;6002;-89
2022/02/02 22:52:27;;;;;;;4.82;4.00;;;;;;;6.61;65.87;100566.09;144992;575;6002;-92
2022/02/02 22:54:54;;;;;;;5.53;4.62;;;;;;;6.78;65.62;100570.28;144992;586;6002;-89
2022/02/02 22:57:22;;;;;;;4.93;3.90;;;;;;;6.60;64.86;100569.47;144992;726;6002;-88
2022/02/02 22:59:50;;;;;;;8.25;4.82;;;;;;;6.79;65.25;100573.72;144992;626;6002;-91
2022/02/02 23:25:41;;;;;;;5.00;4.15;;;;;;;8.19;62.48;100576.69;144991;567;6002;-91
2022/02/02 23:49:13;;;;;;;6.85;4.20;;;;;;;8.71;60.59;100606.22;144992;612;6002;-92
